createdAt,value
2019-04-05T00:09:22.672Z,17.30
2019-04-05T00:39:25.326Z,17.10
2019-04-05T01:09:28.058Z,16.90
2019-04-05T01:39:30.664Z,16.50
2019-04-05T02:09:33.284Z,16.10
2019-04-05T02:39:35.960Z,16.00
2019-04-05T03:09:38.578Z,15.70
2019-04-05T03:39:41.183Z,15.60
2019-04-05T04:09:43.825Z,15.60
2019-04-05T04:39:46.437Z,15.40
2019-04-05T05:09:49.049Z,15.10
2019-04-05T05:39:54.598Z,15.30
2019-04-05T06:09:57.287Z,15.30
2019-04-05T06:40:00.084Z,15.50
2019-04-05T07:10:03.009Z,15.90
2019-04-05T07:40:05.760Z,16.70
2019-04-05T08:10:09.061Z,17.40
2019-04-05T08:40:11.689Z,18.10
2019-04-05T09:10:14.581Z,18.20
2019-04-05T09:40:17.272Z,19.60
2019-04-05T10:10:19.941Z,21.80
2019-04-05T10:40:22.571Z,22.80
2019-04-05T11:10:25.211Z,23.80
2019-04-05T11:40:27.962Z,24.60
2019-04-05T12:10:32.151Z,25.80
2019-04-05T12:40:34.888Z,28.70
2019-04-05T13:10:37.596Z,34.50
2019-04-05T13:40:40.212Z,33.70
2019-04-05T14:10:42.920Z,32.70
2019-04-05T14:40:45.564Z,33.00
2019-04-05T15:10:51.147Z,31.90
2019-04-05T15:40:52.496Z,31.70
2019-04-05T16:10:55.139Z,27.60
2019-04-05T16:40:57.783Z,26.20
2019-04-05T17:11:00.419Z,25.10
2019-04-05T17:41:03.192Z,24.10
2019-04-05T18:11:05.813Z,23.40
2019-04-05T18:41:08.436Z,23.10
2019-04-05T19:11:11.119Z,22.70
2019-04-05T20:11:18.156Z,22.10
2019-04-05T20:41:22.000Z,21.70
2019-04-05T21:11:27.063Z,21.20
2019-04-05T21:41:28.896Z,20.90
2019-04-05T22:11:31.542Z,20.40
2019-04-05T22:41:34.288Z,20.10
2019-04-05T23:11:36.931Z,19.20
2019-04-05T23:41:40.121Z,18.20
